sensor_id;sensor_type;location;lat;lon;timestamp;pressure;altitude;pressure_sealevel;temperature;humidity
47104;BME280;32853;52.164;5.400;2022-07-22T00:00:42;102115.03;;;17.63;100.00
47104;BME280;32853;52.164;5.400;2022-07-22T00:03:07;102113.63;;;17.56;100.00
47104;BME280;32853;52.164;5.400;2022-07-22T00:05:33;102106.53;;;17.57;100.00
47104;BME280;32853;52.164;5.400;2022-07-22T00:07:58;102083.31;;;17.45;100.00
47104;BME280;32853;52.164;5.400;2022-07-22T00:10:23;102123.66;;;17.67;100.00
47104;BME280;32853;52.164;5.400;2022-07-22T00:12:49;102062.03;;;17.29;100.00
47104;BME280;32853;52.164;5.400;2022-07-22T00:15:14;102053.91;;;17.33;100.00
47104;BME280;32853;52.164;5.400;2022-07-22T00:17:39;102105.75;;;17.55;100.00
47104;BME280;32853;52.164;5.400;2022-07-22T00:20:06;102104.75;;;17.57;100.00
47104;BME280;32853;52.164;5.400;2022-07-22T00:22:32;102090.25;;;17.47;100.00
47104;BME280;32853;52.164;5.400;2022-07-22T00:24:57;102090.41;;;17.44;100.00
47104;BME280;32853;52.164;5.400;2022-07-22T00:27:23;102136.63;;;17.73;100.00
47104;BME280;32853;52.164;5.400;2022-07-22T00:29:49;102125.25;;;17.71;100.00
47104;BME280;32853;52.164;5.400;2022-07-22T00:32:14;102137.72;;;17.69;100.00
47104;BME280;32853;52.164;5.400;2022-07-22T00:34:39;102075.91;;;17.34;100.00
47104;BME280;32853;52.164;5.400;2022-07-22T00:37:04;102132.34;;;17.70;100.00
47104;BME280;32853;52.164;5.400;2022-07-22T00:39:31;102059.22;;;17.14;100.00
47104;BME280;32853;52.164;5.400;2022-07-22T00:41:56;102122.31;;;17.58;100.00
47104;BME280;32853;52.164;5.400;2022-07-22T00:44:22;102121.38;;;17.59;100.00
47104;BME280;32853;52.164;5.400;2022-07-22T00:46:47;102119.75;;;17.57;100.00
47104;BME280;32853;52.164;5.400;2022-07-22T00:49:12;102113.44;;;17.59;100.00
47104;BME280;32853;52.164;5.400;2022-07-22T00:51:38;102100.06;;;17.45;100.00
47104;BME280;32853;52.164;5.400;2022-07-22T00:54:05;102083.25;;;17.46;100.00
47104;BME280;32853;52.164;5.400;2022-07-22T00:56:30;102108.00;;;17.62;100.00
47104;BME280;32853;52.164;5.400;2022-07-22T00:58:59;102121.19;;;17.64;100.00
47104;BME280;32853;52.164;5.400;2022-07-22T01:01:25;102102.88;;;17.59;100.00
47104;BME280;32853;52.164;5.400;2022-07-22T01:03:50;102113.91;;;17.69;100.00
47104;BME280;32853;52.164;5.400;2022-07-22T01:06:15;102104.28;;;17.66;100.00
47104;BME280;32853;52.164;5.400;2022-07-22T01:08:41;102059.69;;;17.41;100.00
47104;BME280;32853;52.164;5.400;2022-07-22T01:11:13;102027.81;;;17.26;100.00
47104;BME280;32853;52.164;5.400;2022-07-22T01:13:39;102110.34;;;17.68;100.00
47104;BME280;32853;52.164;5.400;2022-07-22T01:16:06;102096.56;;;17.62;100.00
47104;BME280;32853;52.164;5.400;2022-07-22T01:18:31;102108.53;;;17.70;100.00
47104;BME280;32853;52.164;5.400;2022-07-22T01:20:57;102090.41;;;17.61;100.00
47104;BME280;32853;52.164;5.400;2022-07-22T01:23:23;102102.38;;;17.70;100.00
47104;BME280;32853;52.164;5.400;2022-07-22T01:25:48;102070.28;;;17.59;100.00
47104;BME280;32853;52.164;5.400;2022-07-22T01:28:13;102076.50;;;17.58;100.00
47104;BME280;32853;52.164;5.400;2022-07-22T01:30:39;102113.38;;;17.80;100.00
47104;BME280;32853;52.164;5.400;2022-07-22T01:33:04;102081.53;;;17.62;100.00
47104;BME280;32853;52.164;5.400;2022-07-22T01:35:29;102113.84;;;17.88;100.00
47104;BME280;32853;52.164;5.400;2022-07-22T01:37:55;102063.28;;;17.58;100.00
47104;BME280;32853;52.164;5.400;2022-07-22T01:40:20;102080.47;;;17.66;100.00
47104;BME280;32853;52.164;5.400;2022-07-22T01:42:45;102104.50;;;17.81;100.00
47104;BME280;32853;52.164;5.400;2022-07-22T01:45:10;102097.13;;;17.68;100.00
47104;BME280;32853;52.164;5.400;2022-07-22T01:47:36;102034.22;;;17.39;100.00
47104;BME280;32853;52.164;5.400;2022-07-22T01:50:03;102096.88;;;17.75;100.00
47104;BME280;32853;52.164;5.400;2022-07-22T01:52:29;102064.44;;;17.52;100.00
47104;BME280;32853;52.164;5.400;2022-07-22T01:54:54;102054.84;;;17.50;100.00
47104;BME280;32853;52.164;5.400;2022-07-22T01:57:19;102046.66;;;17.37;100.00
47104;BME280;32853;52.164;5.400;2022-07-22T01:59:45;102057.66;;;17.47;100.00
47104;BME280;32853;52.164;5.400;2022-07-22T02:02:10;102083.13;;;17.66;100.00
47104;BME280;32853;52.164;5.400;2022-07-22T02:04:35;102030.81;;;17.37;100.00
47104;BME280;32853;52.164;5.400;2022-07-22T02:07:04;102078.91;;;17.62;100.00
47104;BME280;32853;52.164;5.400;2022-07-22T02:09:29;102060.72;;;17.56;100.00
47104;BME280;32853;52.164;5.400;2022-07-22T02:11:54;102100.38;;;17.75;100.00
47104;BME280;32853;52.164;5.400;2022-07-22T02:14:20;102102.00;;;17.78;100.00
47104;BME280;32853;52.164;5.400;2022-07-22T02:16:45;102021.94;;;17.38;100.00
47104;BME280;32853;52.164;5.400;2022-07-22T02:19:10;102051.28;;;17.51;100.00
47104;BME280;32853;52.164;5.400;2022-07-22T02:21:37;102054.16;;;17.46;100.00
47104;BME280;32853;52.164;5.400;2022-07-22T02:24:03;102082.84;;;17.73;100.00
47104;BME280;32853;52.164;5.400;2022-07-22T02:26:28;102053.63;;;17.57;100.00
47104;BME280;32853;52.164;5.400;2022-07-22T02:28:53;102056.34;;;17.55;100.00
47104;BME280;32853;52.164;5.400;2022-07-22T02:31:19;102073.06;;;17.75;100.00
47104;BME280;32853;52.164;5.400;2022-07-22T02:33:45;102061.84;;;17.69;100.00
47104;BME280;32853;52.164;5.400;2022-07-22T02:36:11;102079.28;;;17.74;100.00
47104;BME280;32853;52.164;5.400;2022-07-22T02:38:36;101986.47;;;17.25;100.00
47104;BME280;32853;52.164;5.400;2022-07-22T02:41:01;102031.91;;;17.50;100.00
47104;BME280;32853;52.164;5.400;2022-07-22T02:43:27;102030.19;;;17.49;100.00
47104;BME280;32853;52.164;5.400;2022-07-22T02:45:52;102070.41;;;17.75;100.00
47104;BME280;32853;52.164;5.400;2022-07-22T02:48:17;102069.47;;;17.76;100.00
47104;BME280;32853;52.164;5.400;2022-07-22T02:50:45;102055.69;;;17.69;100.00
47104;BME280;32853;52.164;5.400;2022-07-22T02:53:12;102075.72;;;17.75;100.00
47104;BME280;32853;52.164;5.400;2022-07-22T02:55:37;102086.13;;;17.78;100.00
47104;BME280;32853;52.164;5.400;2022-07-22T02:58:06;102080.19;;;17.73;100.00
47104;BME280;32853;52.164;5.400;2022-07-22T03:00:32;102044.44;;;17.47;100.00
47104;BME280;32853;52.164;5.400;2022-07-22T03:02:57;102068.19;;;17.65;100.00
47104;BME280;32853;52.164;5.400;2022-07-22T03:05:23;101999.47;;;17.29;100.00
47104;BME280;32853;52.164;5.400;2022-07-22T03:07:48;102083.47;;;17.78;100.00
47104;BME280;32853;52.164;5.400;2022-07-22T03:10:14;102042.47;;;17.50;100.00
47104;BME280;32853;52.164;5.400;2022-07-22T03:12:39;102055.41;;;17.56;100.00
47104;BME280;32853;52.164;5.400;2022-07-22T03:15:05;102079.53;;;17.67;100.00
47104;BME280;32853;52.164;5.400;2022-07-22T03:17:34;102085.66;;;17.69;100.00
47104;BME280;32853;52.164;5.400;2022-07-22T03:20:07;102056.63;;;17.49;100.00
47104;BME280;32853;52.164;5.400;2022-07-22T03:22:32;102017.91;;;17.31;100.00
47104;BME280;32853;52.164;5.400;2022-07-22T03:24:57;102045.44;;;17.44;100.00
47104;BME280;32853;52.164;5.400;2022-07-22T03:27:23;102080.66;;;17.63;100.00
47104;BME280;32853;52.164;5.400;2022-07-22T03:29:48;102041.38;;;17.37;100.00
47104;BME280;32853;52.164;5.400;2022-07-22T03:32:13;102094.28;;;17.73;100.00
47104;BME280;32853;52.164;5.400;2022-07-22T03:34:39;102044.88;;;17.37;100.00
47104;BME280;32853;52.164;5.400;2022-07-22T03:37:04;102084.72;;;17.70;100.00
47104;BME280;32853;52.164;5.400;2022-07-22T03:39:29;101986.81;;;17.17;100.00
47104;BME280;32853;52.164;5.400;2022-07-22T03:41:55;102052.84;;;17.55;100.00
47104;BME280;32853;52.164;5.400;2022-07-22T03:44:20;102089.91;;;17.72;100.00
47104;BME280;32853;52.164;5.400;2022-07-22T03:46:45;102041.00;;;17.45;100.00
47104;BME280;32853;52.164;5.400;2022-07-22T03:49:10;102055.69;;;17.50;100.00
47104;BME280;32853;52.164;5.400;2022-07-22T03:51:36;102040.78;;;17.49;100.00
47104;BME280;32853;52.164;5.400;2022-07-22T03:54:01;102084.00;;;17.84;100.00
47104;BME280;32853;52.164;5.400;2022-07-22T03:56:27;102092.84;;;17.85;100.00
47104;BME280;32853;52.164;5.400;2022-07-22T03:58:52;102065.91;;;17.77;100.00
47104;BME280;32853;52.164;5.400;2022-07-22T04:01:17;102032.75;;;17.51;100.00
47104;BME280;32853;52.164;5.400;2022-07-22T04:03:43;102076.56;;;17.75;100.00
47104;BME280;32853;52.164;5.400;2022-07-22T04:06:08;102046.38;;;17.60;100.00
47104;BME280;32853;52.164;5.400;2022-07-22T04:08:33;102087.59;;;17.83;100.00
47104;BME280;32853;52.164;5.400;2022-07-22T04:10:58;102025.16;;;17.45;100.00
47104;BME280;32853;52.164;5.400;2022-07-22T04:13:24;102085.97;;;17.81;100.00
47104;BME280;32853;52.164;5.400;2022-07-22T04:15:49;102066.28;;;17.69;100.00
47104;BME280;32853;52.164;5.400;2022-07-22T04:18:14;102076.69;;;17.72;100.00
47104;BME280;32853;52.164;5.400;2022-07-22T04:20:42;102032.06;;;17.47;100.00
47104;BME280;32853;52.164;5.400;2022-07-22T04:23:08;102082.25;;;17.85;100.00
47104;BME280;32853;52.164;5.400;2022-07-22T04:25:33;102082.47;;;17.80;100.00
47104;BME280;32853;52.164;5.400;2022-07-22T04:27:58;102055.09;;;17.62;100.00
47104;BME280;32853;52.164;5.400;2022-07-22T04:30:23;102039.84;;;17.50;100.00
47104;BME280;32853;52.164;5.400;2022-07-22T04:32:49;102069.56;;;17.74;100.00
47104;BME280;32853;52.164;5.400;2022-07-22T04:35:14;102025.06;;;17.46;100.00
47104;BME280;32853;52.164;5.400;2022-07-22T04:37:39;102065.16;;;17.73;100.00
47104;BME280;32853;52.164;5.400;2022-07-22T04:40:05;102067.53;;;17.79;100.00
47104;BME280;32853;52.164;5.400;2022-07-22T04:42:30;102057.97;;;17.77;100.00
47104;BME280;32853;52.164;5.400;2022-07-22T04:44:55;102026.78;;;17.64;100.00
47104;BME280;32853;52.164;5.400;2022-07-22T04:47:21;102032.94;;;17.65;100.00
47104;BME280;32853;52.164;5.400;2022-07-22T04:49:46;102014.09;;;17.54;100.00
47104;BME280;32853;52.164;5.400;2022-07-22T04:52:14;102073.38;;;17.86;100.00
47104;BME280;32853;52.164;5.400;2022-07-22T04:54:40;102070.56;;;17.89;100.00
47104;BME280;32853;52.164;5.400;2022-07-22T04:57:05;102047.13;;;17.81;100.00
47104;BME280;32853;52.164;5.400;2022-07-22T04:59:30;102065.19;;;17.90;100.00
47104;BME280;32853;52.164;5.400;2022-07-22T05:01:56;102054.22;;;17.81;100.00
47104;BME280;32853;52.164;5.400;2022-07-22T05:04:21;102061.94;;;17.85;100.00
47104;BME280;32853;52.164;5.400;2022-07-22T05:06:46;102065.09;;;17.92;100.00
47104;BME280;32853;52.164;5.400;2022-07-22T05:09:11;101978.75;;;17.37;100.00
47104;BME280;32853;52.164;5.400;2022-07-22T05:11:37;102077.56;;;17.90;100.00
47104;BME280;32853;52.164;5.400;2022-07-22T05:14:02;102066.03;;;17.91;100.00
47104;BME280;32853;52.164;5.400;2022-07-22T05:16:27;102073.72;;;17.95;100.00
47104;BME280;32853;52.164;5.400;2022-07-22T05:18:53;102044.00;;;17.73;100.00
47104;BME280;32853;52.164;5.400;2022-07-22T05:21:18;102073.69;;;17.97;100.00
47104;BME280;32853;52.164;5.400;2022-07-22T05:23:43;102089.63;;;17.95;100.00
47104;BME280;32853;52.164;5.400;2022-07-22T05:26:08;102008.75;;;17.55;100.00
47104;BME280;32853;52.164;5.400;2022-07-22T05:28:34;102067.75;;;17.92;100.00
47104;BME280;32853;52.164;5.400;2022-07-22T05:30:59;102087.69;;;17.99;100.00
47104;BME280;32853;52.164;5.400;2022-07-22T05:33:24;102012.31;;;17.54;100.00
47104;BME280;32853;52.164;5.400;2022-07-22T05:35:50;102072.19;;;17.91;100.00
47104;BME280;32853;52.164;5.400;2022-07-22T05:38:18;102034.44;;;17.70;100.00
47104;BME280;32853;52.164;5.400;2022-07-22T05:40:43;102044.94;;;17.72;100.00
47104;BME280;32853;52.164;5.400;2022-07-22T05:43:09;102087.91;;;17.94;100.00
47104;BME280;32853;52.164;5.400;2022-07-22T05:45:34;102088.47;;;18.01;100.00
47104;BME280;32853;52.164;5.400;2022-07-22T05:47:59;102070.72;;;17.86;100.00
47104;BME280;32853;52.164;5.400;2022-07-22T05:50:26;101987.88;;;17.32;100.00
47104;BME280;32853;52.164;5.400;2022-07-22T05:52:51;102055.53;;;17.72;100.00
47104;BME280;32853;52.164;5.400;2022-07-22T05:55:16;102095.78;;;17.96;100.00
47104;BME280;32853;52.164;5.400;2022-07-22T05:57:42;102050.72;;;17.80;100.00
47104;BME280;32853;52.164;5.400;2022-07-22T06:00:08;102052.03;;;17.89;100.00
47104;BME280;32853;52.164;5.400;2022-07-22T06:02:33;101999.31;;;17.50;100.00
47104;BME280;32853;52.164;5.400;2022-07-22T06:04:58;102084.09;;;18.00;100.00
47104;BME280;32853;52.164;5.400;2022-07-22T06:07:26;101937.53;;;17.16;100.00
47104;BME280;32853;52.164;5.400;2022-07-22T06:09:51;102093.22;;;18.12;100.00
47104;BME280;32853;52.164;5.400;2022-07-22T06:12:17;102050.41;;;17.86;100.00
47104;BME280;32853;52.164;5.400;2022-07-22T06:14:42;102046.28;;;17.81;100.00
47104;BME280;32853;52.164;5.400;2022-07-22T06:17:08;102062.28;;;17.95;100.00
47104;BME280;32853;52.164;5.400;2022-07-22T06:19:33;102089.53;;;18.14;100.00
47104;BME280;32853;52.164;5.400;2022-07-22T06:21:58;102093.97;;;18.14;100.00
47104;BME280;32853;52.164;5.400;2022-07-22T06:24:24;102044.88;;;17.91;100.00
47104;BME280;32853;52.164;5.400;2022-07-22T06:26:49;102092.56;;;18.24;100.00
47104;BME280;32853;52.164;5.400;2022-07-22T06:29:14;102097.78;;;18.25;100.00
47104;BME280;32853;52.164;5.400;2022-07-22T06:31:40;102099.28;;;18.31;100.00
47104;BME280;32853;52.164;5.400;2022-07-22T06:34:05;102093.06;;;18.48;100.00
47104;BME280;32853;52.164;5.400;2022-07-22T06:36:31;102081.72;;;18.46;100.00
47104;BME280;32853;52.164;5.400;2022-07-22T06:38:57;102087.94;;;18.45;100.00
47104;BME280;32853;52.164;5.400;2022-07-22T06:41:22;102083.81;;;18.39;100.00
47104;BME280;32853;52.164;5.400;2022-07-22T06:43:48;102022.03;;;18.06;100.00
47104;BME280;32853;52.164;5.400;2022-07-22T06:46:13;102084.91;;;18.35;100.00
47104;BME280;32853;52.164;5.400;2022-07-22T06:48:38;102087.19;;;18.25;100.00
47104;BME280;32853;52.164;5.400;2022-07-22T06:51:03;102077.88;;;18.18;100.00
47104;BME280;32853;52.164;5.400;2022-07-22T06:53:29;102090.78;;;18.24;100.00
47104;BME280;32853;52.164;5.400;2022-07-22T06:55:54;101996.69;;;17.84;100.00
47104;BME280;32853;52.164;5.400;2022-07-22T06:58:20;102065.69;;;18.32;100.00
47104;BME280;32853;52.164;5.400;2022-07-22T07:00:45;102048.00;;;18.32;100.00
47104;BME280;32853;52.164;5.400;2022-07-22T07:03:11;102041.28;;;18.42;100.00
47104;BME280;32853;52.164;5.400;2022-07-22T07:05:36;102080.16;;;18.42;100.00
47104;BME280;32853;52.164;5.400;2022-07-22T07:08:02;102013.41;;;18.02;100.00
47104;BME280;32853;52.164;5.400;2022-07-22T07:10:27;102015.88;;;18.05;100.00
47104;BME280;32853;52.164;5.400;2022-07-22T07:12:57;102076.09;;;18.19;100.00
47104;BME280;32853;52.164;5.400;2022-07-22T07:15:23;102000.47;;;17.61;100.00
47104;BME280;32853;52.164;5.400;2022-07-22T07:17:49;102012.13;;;17.76;100.00
47104;BME280;32853;52.164;5.400;2022-07-22T07:20:14;102055.94;;;17.99;100.00
47104;BME280;32853;52.164;5.400;2022-07-22T07:22:40;102034.44;;;17.88;100.00
47104;BME280;32853;52.164;5.400;2022-07-22T07:25:07;102002.47;;;17.75;100.00
47104;BME280;32853;52.164;5.400;2022-07-22T07:27:33;102099.50;;;18.26;100.00
47104;BME280;32853;52.164;5.400;2022-07-22T07:29:58;102068.53;;;18.11;100.00
47104;BME280;32853;52.164;5.400;2022-07-22T07:32:23;102075.63;;;18.11;100.00
47104;BME280;32853;52.164;5.400;2022-07-22T07:34:49;102044.63;;;17.95;100.00
47104;BME280;32853;52.164;5.400;2022-07-22T07:37:14;102030.78;;;18.08;100.00
47104;BME280;32853;52.164;5.400;2022-07-22T07:39:40;102035.44;;;18.03;100.00
47104;BME280;32853;52.164;5.400;2022-07-22T07:42:05;102084.72;;;18.22;100.00
47104;BME280;32853;52.164;5.400;2022-07-22T07:44:31;102003.13;;;17.61;100.00
47104;BME280;32853;52.164;5.400;2022-07-22T07:46:56;102090.38;;;18.32;100.00
47104;BME280;32853;52.164;5.400;2022-07-22T07:49:21;102041.72;;;18.17;100.00
47104;BME280;32853;52.164;5.400;2022-07-22T07:51:47;102094.78;;;18.49;100.00
47104;BME280;32853;52.164;5.400;2022-07-22T07:54:12;102085.84;;;18.51;100.00
47104;BME280;32853;52.164;5.400;2022-07-22T07:56:37;102052.56;;;18.13;100.00
47104;BME280;32853;52.164;5.400;2022-07-22T07:59:03;102039.78;;;18.21;100.00
47104;BME280;32853;52.164;5.400;2022-07-22T08:01:29;102015.66;;;17.92;100.00
47104;BME280;32853;52.164;5.400;2022-07-22T08:03:54;102012.72;;;17.81;100.00
47104;BME280;32853;52.164;5.400;2022-07-22T08:06:20;102087.94;;;18.45;100.00
47104;BME280;32853;52.164;5.400;2022-07-22T08:08:45;102088.09;;;18.09;100.00
47104;BME280;32853;52.164;5.400;2022-07-22T08:11:10;102015.13;;;17.68;100.00
47104;BME280;32853;52.164;5.400;2022-07-22T08:13:35;102084.25;;;18.32;100.00
47104;BME280;32853;52.164;5.400;2022-07-22T08:16:01;102090.41;;;18.48;100.00
47104;BME280;32853;52.164;5.400;2022-07-22T08:18:27;102046.25;;;18.15;100.00
47104;BME280;32853;52.164;5.400;2022-07-22T08:20:52;102071.06;;;18.30;100.00
47104;BME280;32853;52.164;5.400;2022-07-22T08:23:18;102087.47;;;18.37;100.00
47104;BME280;32853;52.164;5.400;2022-07-22T08:25:43;102101.88;;;18.48;100.00
47104;BME280;32853;52.164;5.400;2022-07-22T08:28:08;102083.88;;;18.55;100.00
47104;BME280;32853;52.164;5.400;2022-07-22T08:30:34;102066.56;;;18.65;100.00
47104;BME280;32853;52.164;5.400;2022-07-22T08:32:59;102090.28;;;19.00;100.00
47104;BME280;32853;52.164;5.400;2022-07-22T08:35:24;102049.84;;;18.96;100.00
47104;BME280;32853;52.164;5.400;2022-07-22T08:37:50;102042.50;;;18.85;100.00
47104;BME280;32853;52.164;5.400;2022-07-22T08:40:16;102058.81;;;18.94;100.00
47104;BME280;32853;52.164;5.400;2022-07-22T08:42:45;102061.72;;;18.89;100.00
47104;BME280;32853;52.164;5.400;2022-07-22T08:45:12;102076.69;;;18.90;100.00
47104;BME280;32853;52.164;5.400;2022-07-22T08:47:38;102020.31;;;18.38;100.00
47104;BME280;32853;52.164;5.400;2022-07-22T08:50:04;102054.91;;;18.85;100.00
47104;BME280;32853;52.164;5.400;2022-07-22T08:52:29;102063.75;;;19.15;100.00
47104;BME280;32853;52.164;5.400;2022-07-22T08:54:55;102025.72;;;19.01;100.00
47104;BME280;32853;52.164;5.400;2022-07-22T08:57:20;102080.28;;;19.21;100.00
47104;BME280;32853;52.164;5.400;2022-07-22T08:59:50;102025.03;;;18.81;100.00
47104;BME280;32853;52.164;5.400;2022-07-22T09:02:15;102045.56;;;18.94;100.00
47104;BME280;32853;52.164;5.400;2022-07-22T09:04:58;102052.66;;;19.09;100.00
47104;BME280;32853;52.164;5.400;2022-07-22T09:10:03;102067.84;;;19.37;100.00
47104;BME280;32853;52.164;5.400;2022-07-22T09:12:29;101937.94;;;18.75;100.00
47104;BME280;32853;52.164;5.400;2022-07-22T09:14:56;102021.44;;;18.98;100.00
47104;BME280;32853;52.164;5.400;2022-07-22T09:19:54;101976.22;;;18.85;100.00
47104;BME280;32853;52.164;5.400;2022-07-22T09:22:43;102040.31;;;19.55;100.00
47104;BME280;32853;52.164;5.400;2022-07-22T09:27:44;102014.13;;;19.33;100.00
47104;BME280;32853;52.164;5.400;2022-07-22T09:30:15;101972.88;;;19.28;100.00
47104;BME280;32853;52.164;5.400;2022-07-22T09:32:42;102068.91;;;19.80;100.00
47104;BME280;32853;52.164;5.400;2022-07-22T09:35:08;102030.84;;;19.65;100.00
47104;BME280;32853;52.164;5.400;2022-07-22T09:37:33;102065.47;;;20.08;100.00
47104;BME280;32853;52.164;5.400;2022-07-22T09:40:12;102071.00;;;20.34;100.00
47104;BME280;32853;52.164;5.400;2022-07-22T09:42:58;102013.41;;;20.20;100.00
47104;BME280;32853;52.164;5.400;2022-07-22T09:45:26;102068.84;;;20.54;100.00
47104;BME280;32853;52.164;5.400;2022-07-22T09:47:53;102002.88;;;20.33;100.00
47104;BME280;32853;52.164;5.400;2022-07-22T09:50:26;102063.13;;;20.32;100.00
47104;BME280;32853;52.164;5.400;2022-07-22T09:52:53;102059.31;;;20.36;100.00
47104;BME280;32853;52.164;5.400;2022-07-22T09:55:21;102063.78;;;20.36;100.00
47104;BME280;32853;52.164;5.400;2022-07-22T09:57:47;102064.38;;;20.41;100.00
47104;BME280;32853;52.164;5.400;2022-07-22T10:00:16;102010.47;;;19.66;100.00
47104;BME280;32853;52.164;5.400;2022-07-22T10:02:54;102025.66;;;19.78;100.00
47104;BME280;32853;52.164;5.400;2022-07-22T10:05:32;101993.47;;;19.84;100.00
47104;BME280;32853;52.164;5.400;2022-07-22T10:08:00;102004.50;;;20.07;100.00
47104;BME280;32853;52.164;5.400;2022-07-22T10:10:28;102072.75;;;20.05;100.00
47104;BME280;32853;52.164;5.400;2022-07-22T10:12:55;102017.91;;;19.89;100.00
47104;BME280;32853;52.164;5.400;2022-07-22T10:15:22;102063.47;;;20.26;100.00
47104;BME280;32853;52.164;5.400;2022-07-22T10:17:50;102069.97;;;20.50;100.00
47104;BME280;32853;52.164;5.400;2022-07-22T10:20:24;102044.13;;;20.24;100.00
47104;BME280;32853;52.164;5.400;2022-07-22T10:22:54;102071.22;;;20.59;100.00
47104;BME280;32853;52.164;5.400;2022-07-22T10:25:22;102049.22;;;20.43;100.00
47104;BME280;32853;52.164;5.400;2022-07-22T10:27:53;102069.59;;;20.71;100.00
47104;BME280;32853;52.164;5.400;2022-07-22T10:30:29;102073.69;;;20.76;100.00
47104;BME280;32853;52.164;5.400;2022-07-22T10:33:13;102031.34;;;20.59;100.00
47104;BME280;32853;52.164;5.400;2022-07-22T10:35:58;102061.94;;;21.07;100.00
47104;BME280;32853;52.164;5.400;2022-07-22T10:38:24;102068.28;;;21.19;100.00
47104;BME280;32853;52.164;5.400;2022-07-22T10:40:54;102072.72;;;21.33;100.00
47104;BME280;32853;52.164;5.400;2022-07-22T10:43:28;102079.97;;;21.31;100.00
47104;BME280;32853;52.164;5.400;2022-07-22T10:45:55;102061.72;;;21.52;100.00
47104;BME280;32853;52.164;5.400;2022-07-22T10:51:17;102011.97;;;21.25;100.00
47104;BME280;32853;52.164;5.400;2022-07-22T10:54:00;102022.44;;;21.55;100.00
47104;BME280;32853;52.164;5.400;2022-07-22T10:56:31;102025.78;;;21.84;99.21
47104;BME280;32853;52.164;5.400;2022-07-22T10:59:07;101936.25;;;21.31;97.56
47104;BME280;32853;52.164;5.400;2022-07-22T11:01:34;102017.69;;;21.73;92.16
47104;BME280;32853;52.164;5.400;2022-07-22T11:04:09;102056.59;;;22.01;92.67
47104;BME280;32853;52.164;5.400;2022-07-22T11:06:34;102065.53;;;21.87;93.02
47104;BME280;32853;52.164;5.400;2022-07-22T11:09:03;102034.81;;;21.69;93.27
47104;BME280;32853;52.164;5.400;2022-07-22T11:11:41;102004.84;;;21.40;97.22
47104;BME280;32853;52.164;5.400;2022-07-22T11:14:33;102054.91;;;22.25;98.52
47104;BME280;32853;52.164;5.400;2022-07-22T11:17:09;102035.50;;;22.36;94.36
47104;BME280;32853;52.164;5.400;2022-07-22T11:19:36;102034.66;;;22.36;95.41
47104;BME280;32853;52.164;5.400;2022-07-22T11:22:06;102039.22;;;22.46;92.55
47104;BME280;32853;52.164;5.400;2022-07-22T11:24:32;102029.28;;;22.61;92.24
47104;BME280;32853;52.164;5.400;2022-07-22T11:26:59;102035.69;;;22.58;88.43
47104;BME280;32853;52.164;5.400;2022-07-22T11:31:58;102040.22;;;22.95;94.66
47104;BME280;32853;52.164;5.400;2022-07-22T11:34:25;101959.78;;;22.39;89.46
47104;BME280;32853;52.164;5.400;2022-07-22T11:36:51;102003.94;;;22.43;87.70
47104;BME280;32853;52.164;5.400;2022-07-22T11:39:22;102043.78;;;22.70;88.43
47104;BME280;32853;52.164;5.400;2022-07-22T11:41:48;102034.31;;;22.53;90.28
47104;BME280;32853;52.164;5.400;2022-07-22T11:44:18;101979.13;;;21.79;84.76
47104;BME280;32853;52.164;5.400;2022-07-22T11:46:43;102007.50;;;22.30;89.10
47104;BME280;32853;52.164;5.400;2022-07-22T11:49:13;102037.34;;;22.72;84.33
47104;BME280;32853;52.164;5.400;2022-07-22T11:51:39;101998.59;;;22.55;84.29
47104;BME280;32853;52.164;5.400;2022-07-22T11:54:04;102031.94;;;22.86;82.16
47104;BME280;32853;52.164;5.400;2022-07-22T11:56:31;101969.03;;;22.58;85.43
47104;BME280;32853;52.164;5.400;2022-07-22T11:58:57;102017.50;;;22.89;83.75
47104;BME280;32853;52.164;5.400;2022-07-22T12:01:24;101854.09;;;22.26;77.87
47104;BME280;32853;52.164;5.400;2022-07-22T12:03:53;101807.25;;;22.11;77.90
47104;BME280;32853;52.164;5.400;2022-07-22T12:06:20;101932.97;;;23.13;76.60
47104;BME280;32853;52.164;5.400;2022-07-22T12:09:02;101999.59;;;23.50;73.50
47104;BME280;32853;52.164;5.400;2022-07-22T12:11:28;101990.50;;;23.53;78.04
47104;BME280;32853;52.164;5.400;2022-07-22T12:13:54;101919.25;;;23.07;76.45
47104;BME280;32853;52.164;5.400;2022-07-22T12:16:28;101974.78;;;23.37;73.64
47104;BME280;32853;52.164;5.400;2022-07-22T12:18:58;101978.84;;;23.54;75.47
47104;BME280;32853;52.164;5.400;2022-07-22T12:21:26;101989.91;;;23.25;75.72
47104;BME280;32853;52.164;5.400;2022-07-22T12:23:54;101954.56;;;22.86;75.58
47104;BME280;32853;52.164;5.400;2022-07-22T12:27:09;101992.44;;;23.51;79.50
47104;BME280;32853;52.164;5.400;2022-07-22T12:29:30;101987.72;;;23.19;76.25
47104;BME280;32853;52.164;5.400;2022-07-22T12:32:00;101915.63;;;22.47;79.86
47104;BME280;32853;52.164;5.400;2022-07-22T12:34:43;101899.06;;;22.31;80.51
47104;BME280;32853;52.164;5.400;2022-07-22T12:37:14;101966.97;;;22.75;80.69
47104;BME280;32853;52.164;5.400;2022-07-22T12:39:55;101969.81;;;22.48;81.93
47104;BME280;32853;52.164;5.400;2022-07-22T12:42:21;101946.53;;;22.63;83.89
47104;BME280;32853;52.164;5.400;2022-07-22T12:44:58;101965.28;;;22.98;79.54
47104;BME280;32853;52.164;5.400;2022-07-22T12:47:44;101970.59;;;22.74;82.30
47104;BME280;32853;52.164;5.400;2022-07-22T12:50:33;101911.22;;;22.59;81.12
47104;BME280;32853;52.164;5.400;2022-07-22T12:53:04;101892.72;;;22.45;81.05